Time;durP1;ratioP1;P1;durP2;ratioP2;P2;SDS_P1;SDS_P2;PMS_P1;PMS_P2;Temp;Humidity;BMP_temperature;BMP_pressure;BME280_temperature;BME280_humidity;BME280_pressure;Samples;Min_cycle;Max_cycle;Signal;HPM_P1;HPM_P2
2024/04/09 00:00:46;;;;;;;;;;;21.70;49.30;;;;;;1561742;75;595;-66
2024/04/09 00:02:49;;;;;;;;;;;21.70;49.30;;;;;;1556567;75;1567;-68
2024/04/09 00:04:51;;;;;;;;;;;21.70;49.30;;;;;;1563474;75;740;-67
2024/04/09 00:06:53;;;;;;;;;;;21.70;49.40;;;;;;1561316;74;897;-65
2024/04/09 00:08:55;;;;;;;;;;;21.70;49.40;;;;;;1568122;75;1196;-67
2024/04/09 00:11:00;;;;;;;;;;;21.70;49.40;;;;;;1564174;75;1021;-69
2024/04/09 00:13:01;;;;;;;;;;;21.70;49.40;;;;;;1564619;75;1796;-68
2024/04/09 00:15:07;;;;;;;;;;;21.70;49.40;;;;;;1565638;75;668;-69
2024/04/09 00:17:06;;;;;;;;;;;21.70;49.50;;;;;;1556031;75;1927;-66
2024/04/09 00:19:11;;;;;;;;;;;21.70;49.50;;;;;;1561410;75;1106;-65
2024/04/09 00:21:12;;;;;;;;;;;21.70;49.50;;;;;;1558122;75;1625;-66
2024/04/09 00:23:16;;;;;;;;;;;21.70;49.50;;;;;;1559469;75;751;-67
2024/04/09 00:25:18;;;;;;;;;;;21.70;49.40;;;;;;1562793;75;1382;-66
2024/04/09 00:27:20;;;;;;;;;;;21.70;49.50;;;;;;1565437;75;1160;-68
2024/04/09 00:29:22;;;;;;;;;;;21.70;49.50;;;;;;1556024;75;859;-67
2024/04/09 00:31:27;;;;;;;;;;;21.70;49.50;;;;;;1555785;75;1555;-69
2024/04/09 00:33:29;;;;;;;;;;;21.70;49.60;;;;;;1556301;75;765;-68
2024/04/09 00:35:31;;;;;;;;;;;21.70;49.60;;;;;;1566250;75;683;-66
2024/04/09 00:37:35;;;;;;;;;;;21.70;49.60;;;;;;1558445;75;1949;-68
2024/04/09 00:39:37;;;;;;;;;;;21.70;49.60;;;;;;1567124;76;1666;-69
2024/04/09 00:41:39;;;;;;;;;;;21.70;49.70;;;;;;1566445;75;711;-69
2024/04/09 00:43:41;;;;;;;;;;;21.70;49.70;;;;;;1562267;75;597;-66
2024/04/09 00:45:46;;;;;;;;;;;21.70;49.70;;;;;;1560848;75;1590;-68
2024/04/09 00:47:48;;;;;;;;;;;21.70;49.70;;;;;;1566294;75;1152;-65
2024/04/09 00:49:50;;;;;;;;;;;21.70;49.70;;;;;;1558878;75;715;-67
2024/04/09 00:51:52;;;;;;;;;;;21.70;49.70;;;;;;1565903;75;678;-69
2024/04/09 00:53:54;;;;;;;;;;;21.70;49.70;;;;;;1557245;75;800;-69
2024/04/09 00:55:56;;;;;;;;;;;21.70;49.70;;;;;;1566777;75;677;-66
2024/04/09 00:57:57;;;;;;;;;;;21.70;49.70;;;;;;1566761;75;1934;-67
2024/04/09 00:59:59;;;;;;;;;;;21.70;49.70;;;;;;1560231;75;1530;-70
2024/04/09 01:02:01;;;;;;;;;;;21.80;49.70;;;;;;1551868;75;675;-67
2024/04/09 01:04:03;;;;;;;;;;;21.80;49.70;;;;;;1557229;74;686;-65
2024/04/09 01:06:09;;;;;;;;;;;21.70;49.80;;;;;;1565756;75;799;-67
2024/04/09 01:08:09;;;;;;;;;;;21.70;49.90;;;;;;1566079;75;1666;-70
2024/04/09 01:10:11;;;;;;;;;;;21.80;49.80;;;;;;1558582;75;690;-68
2024/04/09 01:12:13;;;;;;;;;;;21.70;49.80;;;;;;1564394;75;698;-66
2024/04/09 01:14:14;;;;;;;;;;;21.80;49.90;;;;;;1553029;75;1560;-67
2024/04/09 01:16:16;;;;;;;;;;;21.70;49.80;;;;;;1563080;75;719;-65
2024/04/09 01:18:18;;;;;;;;;;;21.70;49.80;;;;;;1559934;75;1931;-64
2024/04/09 01:20:20;;;;;;;;;;;21.70;49.80;;;;;;1565181;75;737;-66
2024/04/09 01:22:22;;;;;;;;;;;21.80;49.90;;;;;;1561859;75;692;-69
2024/04/09 01:24:24;;;;;;;;;;;21.70;49.90;;;;;;1568109;75;586;-67
2024/04/09 01:26:26;;;;;;;;;;;21.70;50.00;;;;;;1567440;76;768;-70
2024/04/09 01:28:28;;;;;;;;;;;21.70;49.90;;;;;;1562835;74;1534;-67
2024/04/09 01:30:30;;;;;;;;;;;21.70;50.00;;;;;;1565800;76;792;-65
2024/04/09 01:32:32;;;;;;;;;;;21.70;49.90;;;;;;1562072;75;784;-66
2024/04/09 01:34:38;;;;;;;;;;;21.70;50.00;;;;;;1560553;75;735;-65
2024/04/09 01:36:38;;;;;;;;;;;21.70;50.00;;;;;;1563094;75;1223;-67
2024/04/09 01:38:40;;;;;;;;;;;21.70;50.00;;;;;;1565735;75;1922;-65
2024/04/09 01:40:43;;;;;;;;;;;21.70;50.00;;;;;;1565074;75;701;-67
2024/04/09 01:42:45;;;;;;;;;;;21.70;50.10;;;;;;1563857;75;1406;-66
2024/04/09 01:44:47;;;;;;;;;;;21.70;50.10;;;;;;1554889;75;780;-66
2024/04/09 01:46:49;;;;;;;;;;;21.70;50.10;;;;;;1564897;75;737;-66
2024/04/09 01:48:51;;;;;;;;;;;21.70;50.10;;;;;;1562410;75;1099;-66
2024/04/09 01:50:54;;;;;;;;;;;21.70;50.20;;;;;;1556151;75;830;-69
2024/04/09 01:52:56;;;;;;;;;;;21.70;50.20;;;;;;1567162;75;701;-67
2024/04/09 01:54:58;;;;;;;;;;;21.70;50.20;;;;;;1562814;75;1557;-69
2024/04/09 01:57:00;;;;;;;;;;;21.70;50.20;;;;;;1550483;75;669;-65
2024/04/09 01:59:02;;;;;;;;;;;21.70;50.20;;;;;;1552872;75;1947;-66
2024/04/09 02:01:09;;;;;;;;;;;21.70;50.20;;;;;;1556794;74;660;-67
2024/04/09 02:03:10;;;;;;;;;;;21.80;50.20;;;;;;1560214;75;1513;-69
2024/04/09 02:05:12;;;;;;;;;;;21.70;50.20;;;;;;1567122;75;700;-67
2024/04/09 02:07:15;;;;;;;;;;;21.70;50.20;;;;;;1566010;75;693;-67
2024/04/09 02:09:18;;;;;;;;;;;21.70;50.30;;;;;;1567054;74;1356;-67
2024/04/09 02:11:22;;;;;;;;;;;21.80;50.20;;;;;;1555700;75;690;-67
2024/04/09 02:13:25;;;;;;;;;;;21.70;50.20;;;;;;1561704;75;1703;-69
2024/04/09 02:15:28;;;;;;;;;;;21.70;50.30;;;;;;1566652;75;592;-68
2024/04/09 02:17:30;;;;;;;;;;;21.70;50.30;;;;;;1566311;75;1931;-69
2024/04/09 02:19:32;;;;;;;;;;;21.70;50.30;;;;;;1561837;75;649;-70
2024/04/09 02:21:33;;;;;;;;;;;21.70;50.30;;;;;;1561664;75;654;-67
2024/04/09 02:23:37;;;;;;;;;;;21.70;50.40;;;;;;1560407;75;1513;-66
2024/04/09 02:25:42;;;;;;;;;;;21.80;50.30;;;;;;1556920;75;1466;-66
2024/04/09 02:27:43;;;;;;;;;;;21.80;50.30;;;;;;1560817;75;1153;-66
2024/04/09 02:29:45;;;;;;;;;;;21.70;50.40;;;;;;1560898;75;729;-69
2024/04/09 02:31:47;;;;;;;;;;;21.80;50.30;;;;;;1559924;75;694;-66
2024/04/09 02:33:50;;;;;;;;;;;21.70;50.30;;;;;;1559728;75;628;-66
2024/04/09 02:35:55;;;;;;;;;;;21.70;50.30;;;;;;1557741;75;675;-66
2024/04/09 02:37:58;;;;;;;;;;;21.70;50.40;;;;;;1560303;75;1950;-68
2024/04/09 02:39:59;;;;;;;;;;;21.70;50.40;;;;;;1549863;75;689;-67
2024/04/09 02:42:04;;;;;;;;;;;21.80;50.30;;;;;;1560107;75;678;-69
2024/04/09 02:44:07;;;;;;;;;;;21.70;50.40;;;;;;1566618;75;690;-68
2024/04/09 02:46:09;;;;;;;;;;;21.70;50.50;;;;;;1558788;75;711;-67
2024/04/09 02:48:10;;;;;;;;;;;21.80;50.50;;;;;;1565989;75;1132;-68
2024/04/09 02:50:12;;;;;;;;;;;21.70;50.50;;;;;;1566765;75;715;-67
2024/04/09 02:52:14;;;;;;;;;;;21.70;50.50;;;;;;1556969;74;1506;-71
2024/04/09 02:54:16;;;;;;;;;;;21.70;50.60;;;;;;1561316;75;800;-72
2024/04/09 02:56:18;;;;;;;;;;;21.70;50.50;;;;;;1561264;74;784;-66
2024/04/09 02:58:20;;;;;;;;;;;21.70;50.60;;;;;;1559441;75;1939;-67
2024/04/09 03:00:22;;;;;;;;;;;21.80;50.50;;;;;;1566121;75;659;-69
2024/04/09 03:02:24;;;;;;;;;;;21.80;50.60;;;;;;1564526;75;713;-68
2024/04/09 03:04:26;;;;;;;;;;;21.70;50.50;;;;;;1562054;75;790;-68
2024/04/09 03:06:28;;;;;;;;;;;21.80;50.50;;;;;;1567169;75;1595;-66
2024/04/09 03:08:30;;;;;;;;;;;21.80;50.50;;;;;;1555196;75;1135;-67
2024/04/09 03:10:35;;;;;;;;;;;21.70;50.50;;;;;;1560871;75;676;-66
2024/04/09 03:12:37;;;;;;;;;;;21.70;50.60;;;;;;1562328;75;802;-71
2024/04/09 03:14:39;;;;;;;;;;;21.70;50.50;;;;;;1562814;75;726;-65
2024/04/09 03:16:41;;;;;;;;;;;21.70;50.60;;;;;;1567266;75;825;-66
2024/04/09 03:18:43;;;;;;;;;;;21.70;50.60;;;;;;1564288;75;1936;-68
2024/04/09 03:20:45;;;;;;;;;;;21.70;50.50;;;;;;1562932;75;1328;-67
2024/04/09 03:22:47;;;;;;;;;;;21.70;50.50;;;;;;1561575;75;608;-67
2024/04/09 03:24:48;;;;;;;;;;;21.70;50.50;;;;;;1565988;75;769;-66
2024/04/09 03:26:50;;;;;;;;;;;21.70;50.60;;;;;;1558705;76;708;-71
2024/04/09 03:28:53;;;;;;;;;;;21.70;50.50;;;;;;1561761;75;1129;-66
2024/04/09 03:30:58;;;;;;;;;;;21.70;50.50;;;;;;1564864;75;657;-70
2024/04/09 03:32:59;;;;;;;;;;;21.70;50.60;;;;;;1557804;75;633;-67
2024/04/09 03:35:01;;;;;;;;;;;21.80;50.60;;;;;;1563750;74;1597;-67
2024/04/09 03:37:04;;;;;;;;;;;21.70;50.70;;;;;;1565975;76;783;-67
2024/04/09 03:39:07;;;;;;;;;;;21.80;50.70;;;;;;1563299;75;1932;-66
2024/04/09 03:41:09;;;;;;;;;;;21.80;50.70;;;;;;1567328;75;748;-66
2024/04/09 03:43:11;;;;;;;;;;;21.70;50.70;;;;;;1563332;75;723;-65
2024/04/09 03:45:13;;;;;;;;;;;21.70;50.80;;;;;;1566718;75;711;-65
2024/04/09 03:47:15;;;;;;;;;;;21.70;50.80;;;;;;1557485;75;688;-65
2024/04/09 03:49:16;;;;;;;;;;;21.70;50.90;;;;;;1553271;75;1696;-67
2024/04/09 03:51:18;;;;;;;;;;;21.70;50.90;;;;;;1554151;75;713;-65
2024/04/09 03:53:21;;;;;;;;;;;21.70;50.90;;;;;;1564695;75;739;-67
2024/04/09 03:55:23;;;;;;;;;;;21.70;51.00;;;;;;1562204;75;676;-67
2024/04/09 03:57:25;;;;;;;;;;;21.70;51.00;;;;;;1561414;75;1178;-66
2024/04/09 03:59:27;;;;;;;;;;;21.70;51.00;;;;;;1558045;75;1946;-68
2024/04/09 04:01:29;;;;;;;;;;;21.70;51.00;;;;;;1559130;75;812;-72
2024/04/09 04:03:31;;;;;;;;;;;21.70;51.00;;;;;;1560545;75;1574;-67
2024/04/09 04:05:33;;;;;;;;;;;21.70;51.10;;;;;;1565890;75;772;-69
2024/04/09 04:07:35;;;;;;;;;;;21.70;51.20;;;;;;1559356;75;1144;-67
2024/04/09 04:09:37;;;;;;;;;;;21.70;51.10;;;;;;1562102;75;723;-69
2024/04/09 04:11:39;;;;;;;;;;;21.70;51.00;;;;;;1566895;75;759;-64
2024/04/09 04:13:41;;;;;;;;;;;21.70;51.00;;;;;;1565020;76;1022;-70
2024/04/09 04:15:43;;;;;;;;;;;21.70;51.00;;;;;;1556673;74;1559;-65
2024/04/09 04:17:45;;;;;;;;;;;21.70;51.00;;;;;;1562575;75;1181;-67
2024/04/09 04:19:47;;;;;;;;;;;21.70;50.90;;;;;;1556678;75;1951;-66
2024/04/09 04:21:49;;;;;;;;;;;21.70;51.00;;;;;;1564860;75;767;-65
2024/04/09 04:23:51;;;;;;;;;;;21.80;50.90;;;;;;1564584;75;585;-67
2024/04/09 04:25:54;;;;;;;;;;;21.70;50.90;;;;;;1562579;75;789;-69
2024/04/09 04:27:56;;;;;;;;;;;21.70;50.90;;;;;;1560519;75;1148;-68
2024/04/09 04:29:58;;;;;;;;;;;21.70;50.90;;;;;;1563307;75;1441;-66
2024/04/09 04:31:59;;;;;;;;;;;21.80;51.00;;;;;;1565613;75;743;-65
2024/04/09 04:34:01;;;;;;;;;;;21.80;50.90;;;;;;1564669;75;667;-66
2024/04/09 04:36:03;;;;;;;;;;;21.70;50.90;;;;;;1558749;75;685;-69
2024/04/09 04:38:05;;;;;;;;;;;21.70;50.90;;;;;;1562931;75;1154;-70
2024/04/09 04:40:10;;;;;;;;;;;21.80;51.00;;;;;;1567166;75;1928;-69
2024/04/09 04:42:11;;;;;;;;;;;21.70;51.00;;;;;;1561121;75;1783;-70
2024/04/09 04:44:14;;;;;;;;;;;21.80;51.00;;;;;;1564850;75;1535;-66
2024/04/09 04:46:16;;;;;;;;;;;21.70;51.00;;;;;;1564044;75;780;-66
2024/04/09 04:48:22;;;;;;;;;;;21.80;51.00;;;;;;1565338;74;1148;-67
2024/04/09 04:50:21;;;;;;;;;;;21.70;51.00;;;;;;1561103;75;1242;-67
2024/04/09 04:52:23;;;;;;;;;;;21.80;51.10;;;;;;1562078;75;780;-70
2024/04/09 04:54:25;;;;;;;;;;;21.80;51.10;;;;;;1566637;75;664;-68
2024/04/09 04:56:27;;;;;;;;;;;21.80;51.20;;;;;;1566323;76;745;-70
2024/04/09 04:58:29;;;;;;;;;;;21.80;51.10;;;;;;1564611;74;1961;-65
2024/04/09 05:00:31;;;;;;;;;;;21.80;51.10;;;;;;1563180;75;704;-66
2024/04/09 05:02:33;;;;;;;;;;;21.70;51.10;;;;;;1558988;75;811;-69
2024/04/09 05:04:35;;;;;;;;;;;21.80;51.20;;;;;;1565084;75;771;-67
2024/04/09 05:06:36;;;;;;;;;;;21.80;51.20;;;;;;1565793;75;800;-67
2024/04/09 05:08:38;;;;;;;;;;;21.80;51.20;;;;;;1565115;74;1144;-65
2024/04/09 05:10:40;;;;;;;;;;;21.80;51.10;;;;;;1553866;75;743;-69
2024/04/09 05:12:44;;;;;;;;;;;21.80;51.10;;;;;;1557517;75;1529;-67
2024/04/09 05:14:47;;;;;;;;;;;21.80;51.00;;;;;;1560540;75;998;-67
2024/04/09 05:16:49;;;;;;;;;;;21.80;51.00;;;;;;1564533;75;749;-67
2024/04/09 05:18:50;;;;;;;;;;;21.80;51.00;;;;;;1567226;76;1946;-68
2024/04/09 05:20:52;;;;;;;;;;;21.80;51.00;;;;;;1563437;75;736;-72
2024/04/09 05:22:56;;;;;;;;;;;21.80;50.90;;;;;;1564925;75;703;-72
2024/04/09 05:24:58;;;;;;;;;;;21.80;50.90;;;;;;1562301;75;684;-65
2024/04/09 05:27:00;;;;;;;;;;;21.80;50.90;;;;;;1564462;75;1544;-66
2024/04/09 05:29:03;;;;;;;;;;;21.80;50.80;;;;;;1563445;75;1101;-72
2024/04/09 05:31:04;;;;;;;;;;;21.70;50.80;;;;;;1557065;75;689;-68
2024/04/09 05:33:07;;;;;;;;;;;21.80;50.80;;;;;;1567068;76;673;-66
2024/04/09 05:35:09;;;;;;;;;;;21.80;50.90;;;;;;1566091;75;670;-66
2024/04/09 05:37:11;;;;;;;;;;;21.80;50.80;;;;;;1558674;75;676;-67
2024/04/09 05:39:13;;;;;;;;;;;21.80;50.80;;;;;;1561732;75;1940;-66
2024/04/09 05:41:14;;;;;;;;;;;21.70;50.80;;;;;;1564816;75;1542;-68
2024/04/09 05:43:18;;;;;;;;;;;21.80;50.70;;;;;;1550409;75;675;-67
2024/04/09 05:45:20;;;;;;;;;;;21.80;50.80;;;;;;1553379;75;779;-69
2024/04/09 05:47:25;;;;;;;;;;;21.80;50.80;;;;;;1561165;75;800;-71
2024/04/09 05:49:27;;;;;;;;;;;21.80;50.70;;;;;;1560479;75;776;-69
2024/04/09 05:51:29;;;;;;;;;;;21.80;50.70;;;;;;1564254;76;778;-67
2024/04/09 05:53:30;;;;;;;;;;;21.80;50.70;;;;;;1565668;75;804;-67
2024/04/09 05:55:32;;;;;;;;;;;21.80;50.70;;;;;;1549279;75;1573;-68
2024/04/09 05:57:37;;;;;;;;;;;21.80;50.70;;;;;;1551128;75;1159;-69
2024/04/09 05:59:39;;;;;;;;;;;21.80;50.70;;;;;;1567293;75;1928;-70
2024/04/09 06:01:41;;;;;;;;;;;21.80;50.70;;;;;;1559946;75;669;-68
2024/04/09 06:03:42;;;;;;;;;;;21.80;50.70;;;;;;1557870;75;588;-66
2024/04/09 06:05:44;;;;;;;;;;;21.80;50.70;;;;;;1568580;75;778;-67
2024/04/09 06:07:46;;;;;;;;;;;21.80;50.70;;;;;;1561535;75;1112;-69
2024/04/09 06:09:48;;;;;;;;;;;21.80;50.70;;;;;;1557343;75;1575;-68
2024/04/09 06:11:50;;;;;;;;;;;21.80;50.60;;;;;;1562269;75;782;-70
2024/04/09 06:13:53;;;;;;;;;;;21.80;50.60;;;;;;1567173;75;719;-70
2024/04/09 06:15:54;;;;;;;;;;;21.80;50.60;;;;;;1560527;75;694;-70
2024/04/09 06:17:56;;;;;;;;;;;21.80;50.60;;;;;;1562016;75;1166;-72
2024/04/09 06:19:58;;;;;;;;;;;21.80;50.60;;;;;;1567048;75;1950;-65
2024/04/09 06:22:00;;;;;;;;;;;21.80;50.60;;;;;;1562741;75;733;-66
2024/04/09 06:24:02;;;;;;;;;;;21.80;50.60;;;;;;1563781;74;1710;-68
2024/04/09 06:26:04;;;;;;;;;;;21.80;50.60;;;;;;1561254;75;749;-68
2024/04/09 06:28:07;;;;;;;;;;;21.80;50.60;;;;;;1564749;75;1165;-69
2024/04/09 06:30:09;;;;;;;;;;;21.80;50.60;;;;;;1561545;75;713;-70
2024/04/09 06:32:11;;;;;;;;;;;21.80;50.60;;;;;;1562903;75;704;-68
2024/04/09 06:34:13;;;;;;;;;;;21.70;50.60;;;;;;1563233;75;684;-67
2024/04/09 06:36:15;;;;;;;;;;;21.80;50.50;;;;;;1564820;75;1573;-67
2024/04/09 06:38:17;;;;;;;;;;;21.80;50.60;;;;;;1560161;75;1133;-67
2024/04/09 06:40:19;;;;;;;;;;;21.70;50.50;;;;;;1561187;75;2033;-65
2024/04/09 06:42:21;;;;;;;;;;;21.70;50.50;;;;;;1561552;74;702;-65
2024/04/09 06:44:23;;;;;;;;;;;21.70;50.50;;;;;;1566208;75;674;-68
2024/04/09 06:46:25;;;;;;;;;;;21.70;50.60;;;;;;1562581;75;644;-67
2024/04/09 06:48:27;;;;;;;;;;;21.80;50.50;;;;;;1565987;75;1143;-67
2024/04/09 06:50:29;;;;;;;;;;;21.70;50.50;;;;;;1562739;75;1493;-70
2024/04/09 06:52:31;;;;;;;;;;;21.70;50.50;;;;;;1563064;75;680;-70
2024/04/09 06:54:33;;;;;;;;;;;21.70;50.50;;;;;;1553688;75;803;-72
2024/04/09 06:56:35;;;;;;;;;;;21.80;50.50;;;;;;1557883;75;735;-67
2024/04/09 06:58:37;;;;;;;;;;;21.80;50.50;;;;;;1562281;75;1168;-66
2024/04/09 07:00:39;;;;;;;;;;;21.70;50.50;;;;;;1560694;75;1913;-68
2024/04/09 07:02:41;;;;;;;;;;;21.80;50.60;;;;;;1563696;75;870;-68
2024/04/09 07:04:43;;;;;;;;;;;21.70;50.50;;;;;;1554770;75;1270;-68
2024/04/09 07:06:45;;;;;;;;;;;21.70;50.50;;;;;;1557185;75;668;-67
2024/04/09 07:08:47;;;;;;;;;;;21.70;50.50;;;;;;1560288;75;1149;-68
2024/04/09 07:10:55;;;;;;;;;;;21.70;50.50;;;;;;1561886;75;748;-68
2024/04/09 07:12:57;;;;;;;;;;;21.80;50.50;;;;;;1557811;75;707;-68
2024/04/09 07:15:00;;;;;;;;;;;21.80;50.50;;;;;;1567050;76;720;-67
2024/04/09 07:17:02;;;;;;;;;;;21.80;50.50;;;;;;1563344;75;697;-67
2024/04/09 07:19:05;;;;;;;;;;;21.70;50.50;;;;;;1566917;75;1583;-67
2024/04/09 07:21:08;;;;;;;;;;;21.80;50.50;;;;;;1552008;75;1920;-69
2024/04/09 07:23:10;;;;;;;;;;;21.70;50.40;;;;;;1553720;75;713;-67
2024/04/09 07:25:13;;;;;;;;;;;21.70;50.50;;;;;;1556330;75;770;-66
2024/04/09 07:27:14;;;;;;;;;;;21.70;50.50;;;;;;1567237;75;811;-67
2024/04/09 07:29:18;;;;;;;;;;;21.70;50.40;;;;;;1566388;75;1100;-67
2024/04/09 07:31:21;;;;;;;;;;;21.70;50.50;;;;;;1563601;75;714;-67
2024/04/09 07:33:24;;;;;;;;;;;21.70;50.50;;;;;;1565070;75;1541;-68
2024/04/09 07:35:26;;;;;;;;;;;21.80;50.50;;;;;;1561297;75;678;-70
2024/04/09 07:37:28;;;;;;;;;;;21.70;50.40;;;;;;1560145;74;1173;-66
2024/04/09 07:39:29;;;;;;;;;;;21.70;50.40;;;;;;1560801;75;1937;-66
2024/04/09 07:41:31;;;;;;;;;;;21.70;50.40;;;;;;1566864;75;900;-68
2024/04/09 07:43:33;;;;;;;;;;;21.80;50.40;;;;;;1564959;75;910;-69
2024/04/09 07:45:35;;;;;;;;;;;21.70;50.40;;;;;;1567474;75;725;-67
2024/04/09 07:47:37;;;;;;;;;;;21.80;50.40;;;;;;1565919;75;1571;-69
2024/04/09 07:49:39;;;;;;;;;;;21.70;50.30;;;;;;1563974;75;929;-69
2024/04/09 07:51:41;;;;;;;;;;;21.70;50.40;;;;;;1562574;75;758;-66
2024/04/09 07:53:43;;;;;;;;;;;21.70;50.30;;;;;;1559943;75;750;-65
2024/04/09 07:55:45;;;;;;;;;;;21.70;50.30;;;;;;1564530;75;776;-67
2024/04/09 07:57:47;;;;;;;;;;;21.70;50.30;;;;;;1561083;75;1148;-68
2024/04/09 07:59:49;;;;;;;;;;;21.70;50.40;;;;;;1565812;76;1928;-65
2024/04/09 08:01:52;;;;;;;;;;;21.70;50.40;;;;;;1547925;75;1556;-67
2024/04/09 08:03:53;;;;;;;;;;;21.70;50.30;;;;;;1556565;75;738;-69
2024/04/09 08:05:55;;;;;;;;;;;21.80;50.30;;;;;;1565824;75;728;-70
2024/04/09 08:07:57;;;;;;;;;;;21.70;50.30;;;;;;1551556;75;1097;-69
2024/04/09 08:09:59;;;;;;;;;;;21.80;50.30;;;;;;1560305;75;793;-67
2024/04/09 08:12:01;;;;;;;;;;;21.70;50.30;;;;;;1566437;76;668;-66
2024/04/09 08:14:03;;;;;;;;;;;21.70;50.20;;;;;;1565848;75;592;-69
2024/04/09 08:16:05;;;;;;;;;;;21.70;50.20;;;;;;1564149;75;1592;-70
2024/04/09 08:18:08;;;;;;;;;;;21.70;50.30;;;;;;1566223;75;1183;-68
2024/04/09 08:20:10;;;;;;;;;;;21.70;50.20;;;;;;1563876;75;1924;-67
2024/04/09 08:22:12;;;;;;;;;;;21.70;50.20;;;;;;1566378;75;681;-66
2024/04/09 08:24:14;;;;;;;;;;;21.70;50.20;;;;;;1562169;75;660;-69
2024/04/09 08:26:16;;;;;;;;;;;21.70;50.20;;;;;;1566844;76;684;-71
2024/04/09 08:28:22;;;;;;;;;;;21.70;50.20;;;;;;1561648;75;1154;-71
2024/04/09 08:30:24;;;;;;;;;;;21.70;50.20;;;;;;1562942;75;1594;-70
2024/04/09 08:32:26;;;;;;;;;;;21.70;50.20;;;;;;1558429;75;770;-68
2024/04/09 08:34:28;;;;;;;;;;;21.70;50.10;;;;;;1553133;74;724;-67
2024/04/09 08:36:29;;;;;;;;;;;21.70;50.20;;;;;;1559713;75;661;-67
2024/04/09 08:38:32;;;;;;;;;;;21.70;50.20;;;;;;1562758;75;1140;-67
2024/04/09 08:40:34;;;;;;;;;;;21.70;50.10;;;;;;1564329;75;1936;-67
2024/04/09 08:42:38;;;;;;;;;;;21.70;50.10;;;;;;1565620;75;918;-67
2024/04/09 08:44:40;;;;;;;;;;;21.70;50.10;;;;;;1552904;75;1347;-66
2024/04/09 08:46:42;;;;;;;;;;;21.70;50.10;;;;;;1560624;75;769;-68
2024/04/09 08:48:44;;;;;;;;;;;21.70;50.10;;;;;;1566653;75;1196;-66
2024/04/09 08:50:52;;;;;;;;;;;21.70;50.10;;;;;;1558972;75;719;-68
2024/04/09 08:52:54;;;;;;;;;;;21.70;50.00;;;;;;1564098;75;723;-69
2024/04/09 08:54:56;;;;;;;;;;;21.70;50.10;;;;;;1565481;75;807;-67
2024/04/09 08:56:58;;;;;;;;;;;21.70;50.10;;;;;;1566966;76;659;-70
2024/04/09 08:59:04;;;;;;;;;;;21.70;50.00;;;;;;1564643;75;1716;-68
2024/04/09 09:01:04;;;;;;;;;;;21.70;50.10;;;;;;1560076;75;1920;-69
2024/04/09 09:03:06;;;;;;;;;;;21.70;50.00;;;;;;1561512;75;680;-67
2024/04/09 09:05:22;;;;;;;;;;;21.70;50.00;;;;;;1568185;75;743;-67
2024/04/09 09:07:24;;;;;;;;;;;21.70;50.00;;;;;;1567375;75;1701;-71
2024/04/09 09:09:31;;;;;;;;;;;21.70;50.00;;;;;;1563500;75;717;-66
2024/04/09 09:11:30;;;;;;;;;;;21.70;50.00;;;;;;1560002;74;1595;-65
2024/04/09 09:13:32;;;;;;;;;;;21.70;50.00;;;;;;1558695;75;771;-68
2024/04/09 09:15:33;;;;;;;;;;;21.70;50.00;;;;;;1561836;75;688;-69
2024/04/09 09:17:35;;;;;;;;;;;21.70;50.00;;;;;;1561545;75;1155;-69
2024/04/09 09:19:37;;;;;;;;;;;21.70;49.90;;;;;;1556632;75;721;-72
2024/04/09 09:21:41;;;;;;;;;;;21.70;49.90;;;;;;1555650;75;1932;-67
2024/04/09 09:23:43;;;;;;;;;;;21.70;49.90;;;;;;1561539;75;1722;-66
2024/04/09 09:25:44;;;;;;;;;;;21.70;49.90;;;;;;1556799;75;1544;-68
2024/04/09 09:27:48;;;;;;;;;;;21.80;49.90;;;;;;1551821;75;1153;-69
2024/04/09 09:29:51;;;;;;;;;;;21.80;49.90;;;;;;1555943;74;747;-67
2024/04/09 09:31:53;;;;;;;;;;;21.80;49.90;;;;;;1559429;75;1739;-67
2024/04/09 09:33:55;;;;;;;;;;;21.70;49.80;;;;;;1563080;75;718;-67
2024/04/09 09:35:57;;;;;;;;;;;21.70;49.90;;;;;;1561858;75;699;-69
2024/04/09 09:37:59;;;;;;;;;;;21.70;49.90;;;;;;1567538;76;1142;-66
2024/04/09 09:40:02;;;;;;;;;;;21.80;49.80;;;;;;1565525;75;1596;-68
2024/04/09 09:42:05;;;;;;;;;;;21.80;49.80;;;;;;1563351;75;1912;-68
2024/04/09 09:44:08;;;;;;;;;;;21.70;49.80;;;;;;1566208;75;999;-67
2024/04/09 09:46:11;;;;;;;;;;;21.70;49.80;;;;;;1566863;75;762;-70
2024/04/09 09:48:13;;;;;;;;;;;21.70;49.80;;;;;;1564545;75;1160;-67
2024/04/09 09:50:16;;;;;;;;;;;21.60;49.70;;;;;;1566446;75;720;-69
2024/04/09 09:52:17;;;;;;;;;;;21.80;49.70;;;;;;1558881;75;722;-68
2024/04/09 09:54:19;;;;;;;;;;;21.80;49.70;;;;;;1562492;75;1585;-68
2024/04/09 09:56:21;;;;;;;;;;;21.70;49.70;;;;;;1557902;75;791;-69
2024/04/09 09:58:24;;;;;;;;;;;21.80;49.70;;;;;;1562342;75;1117;-68
2024/04/09 10:00:26;;;;;;;;;;;21.80;49.70;;;;;;1561183;75;1920;-70
2024/04/09 10:02:29;;;;;;;;;;;21.70;49.70;;;;;;1559739;75;732;-66
2024/04/09 10:04:31;;;;;;;;;;;21.80;49.70;;;;;;1558165;75;753;-68
2024/04/09 10:06:33;;;;;;;;;;;21.80;49.70;;;;;;1565138;75;825;-69
2024/04/09 10:08:36;;;;;;;;;;;21.70;49.70;;;;;;1558705;75;1569;-66
2024/04/09 10:10:39;;;;;;;;;;;21.80;49.70;;;;;;1555135;75;1836;-69
2024/04/09 10:12:42;;;;;;;;;;;21.80;49.70;;;;;;1566342;75;811;-68
2024/04/09 10:14:44;;;;;;;;;;;21.80;49.70;;;;;;1568433;75;705;-69
2024/04/09 10:16:47;;;;;;;;;;;21.80;49.70;;;;;;1563332;75;667;-69
2024/04/09 10:18:51;;;;;;;;;;;21.80;49.70;;;;;;1563654;75;1160;-67
2024/04/09 10:20:55;;;;;;;;;;;21.80;49.60;;;;;;1563539;75;1926;-68
2024/04/09 10:23:01;;;;;;;;;;;21.80;49.70;;;;;;1566455;75;1642;-69
2024/04/09 10:25:02;;;;;;;;;;;21.80;49.60;;;;;;1566258;75;1687;-66
2024/04/09 10:27:04;;;;;;;;;;;21.80;49.60;;;;;;1564229;74;761;-67
2024/04/09 10:29:06;;;;;;;;;;;21.80;49.60;;;;;;1558566;75;1117;-67
2024/04/09 10:31:09;;;;;;;;;;;21.80;49.60;;;;;;1558330;75;577;-66
2024/04/09 10:33:11;;;;;;;;;;;21.80;49.60;;;;;;1564018;75;672;-69
2024/04/09 10:35:13;;;;;;;;;;;21.90;49.70;;;;;;1562575;75;714;-67
2024/04/09 10:37:15;;;;;;;;;;;21.80;49.60;;;;;;1560648;75;1588;-69
2024/04/09 10:39:16;;;;;;;;;;;21.80;49.50;;;;;;1566227;76;1274;-66
2024/04/09 10:41:18;;;;;;;;;;;21.80;49.60;;;;;;1564842;75;1935;-65
2024/04/09 10:43:20;;;;;;;;;;;21.80;49.60;;;;;;1564072;75;655;-68
2024/04/09 10:45:22;;;;;;;;;;;21.80;49.50;;;;;;1551444;74;686;-67
2024/04/09 10:47:24;;;;;;;;;;;21.80;49.50;;;;;;1537941;76;1328;-70
2024/04/09 10:49:26;;;;;;;;;;;21.70;49.50;;;;;;1561572;75;782;-66
2024/04/09 10:51:28;;;;;;;;;;;21.80;49.50;;;;;;1550916;74;1710;-68
2024/04/09 10:53:30;;;;;;;;;;;21.80;49.40;;;;;;1569812;74;946;-66
2024/04/09 10:55:33;;;;;;;;;;;21.80;49.40;;;;;;1540895;76;1215;-68
2024/04/09 10:57:35;;;;;;;;;;;21.80;49.50;;;;;;1566726;75;1107;-69
2024/04/09 10:59:37;;;;;;;;;;;21.80;49.50;;;;;;1563341;75;760;-67
2024/04/09 11:01:39;;;;;;;;;;;21.80;49.40;;;;;;1559106;75;1916;-67
2024/04/09 11:03:40;;;;;;;;;;;21.80;49.40;;;;;;1566701;75;1552;-72
2024/04/09 11:05:42;;;;;;;;;;;21.80;49.40;;;;;;1567678;75;697;-66
2024/04/09 11:07:45;;;;;;;;;;;21.80;49.40;;;;;;1552552;75;1151;-66
2024/04/09 11:09:46;;;;;;;;;;;21.80;49.40;;;;;;1563553;75;729;-67
2024/04/09 11:11:48;;;;;;;;;;;21.80;49.40;;;;;;1557759;75;793;-67
2024/04/09 11:13:50;;;;;;;;;;;21.80;49.30;;;;;;1578256;75;754;-71
2024/04/09 11:15:52;;;;;;;;;;;21.80;49.40;;;;;;1557884;76;669;-71
2024/04/09 11:17:54;;;;;;;;;;;21.80;49.30;;;;;;1563835;75;1364;-71
2024/04/09 11:20:10;;;;;;;;;;;21.80;49.30;;;;;;1564999;75;736;-66
2024/04/09 11:22:11;;;;;;;;;;;21.80;49.30;;;;;;1561996;74;1912;-68
2024/04/09 11:24:13;;;;;;;;;;;21.80;49.30;;;;;;1566355;76;632;-70
2024/04/09 11:26:15;;;;;;;;;;;21.80;49.30;;;;;;1561837;75;738;-71
2024/04/09 11:28:17;;;;;;;;;;;21.80;49.30;;;;;;1566027;75;1097;-72
2024/04/09 11:30:23;;;;;;;;;;;21.80;49.30;;;;;;1557753;75;681;-66
2024/04/09 11:32:25;;;;;;;;;;;21.80;49.30;;;;;;1563428;75;1533;-68
2024/04/09 11:34:28;;;;;;;;;;;21.80;49.30;;;;;;1565811;75;797;-66
2024/04/09 11:36:30;;;;;;;;;;;21.80;49.30;;;;;;1569537;75;738;-72
2024/04/09 11:38:32;;;;;;;;;;;21.80;49.30;;;;;;1561815;75;1134;-71
2024/04/09 11:40:34;;;;;;;;;;;21.80;49.20;;;;;;1563751;75;789;-70
2024/04/09 11:42:37;;;;;;;;;;;21.80;49.20;;;;;;1562176;75;1941;-73
2024/04/09 11:44:39;;;;;;;;;;;21.80;49.20;;;;;;1563197;75;662;-67
2024/04/09 11:46:40;;;;;;;;;;;21.80;49.20;;;;;;1556635;75;1348;-70
2024/04/09 11:48:43;;;;;;;;;;;21.80;49.20;;;;;;1563312;75;1141;-72
2024/04/09 11:50:45;;;;;;;;;;;21.90;49.30;;;;;;1565100;75;741;-68
2024/04/09 11:52:47;;;;;;;;;;;21.80;49.20;;;;;;1566556;75;714;-72
2024/04/09 11:54:49;;;;;;;;;;;21.80;49.20;;;;;;1565884;75;791;-72
2024/04/09 11:56:52;;;;;;;;;;;21.80;49.20;;;;;;1562285;75;800;-73
2024/04/09 11:58:53;;;;;;;;;;;21.80;49.10;;;;;;1559593;75;1157;-69
2024/04/09 12:00:56;;;;;;;;;;;21.80;49.10;;;;;;1564292;75;1605;-69
2024/04/09 12:02:57;;;;;;;;;;;21.80;49.10;;;;;;1554892;75;1890;-70
2024/04/09 12:04:59;;;;;;;;;;;21.80;49.20;;;;;;1563738;75;686;-67
2024/04/09 12:07:01;;;;;;;;;;;21.80;49.10;;;;;;1562654;75;700;-68
2024/04/09 12:09:03;;;;;;;;;;;21.80;49.20;;;;;;1555606;75;1119;-70